Flight Track Log - Related Links

Times and Time Zones

All times are in EDT time to prevent confusion due to time zone crossing. See the N173AA flight status page for this flight to view local times or setup timezone preferences in your user account.

Time Position Orientation Groundspeed Altitude Reporting Facility
EDT Latitude Longitude Course Direction KTS MPH feet Rate Location/Type
Sat 03:00:03 AM 35.6097 -77.4392 239° Southwest 280 322 4,200  Level Washington Center
Sat 03:01:03 AM 35.6131 -77.4878 275° West 204 235 6,000 900 Climbing Washington Center
Sat 03:02:03 AM 35.6267 -77.5519 285° West 193 222 6,000  Level Washington Center
Sat 03:03:03 AM 35.6467 -77.6139 292° West 199 229 6,000  Level Washington Center
Sat 03:04:03 AM 35.6603 -77.6678 287° West 192 221 6,000 -50 Level Washington Center
Sat 03:05:03 AM 35.6761 -77.7169 292° West 167 192 5,900 100 Descending Washington Center
Sat 03:06:03 AM 35.7150 -77.7536 323° Northwest 161 185 6,200  Climbing Washington Center
Sat 03:07:03 AM 35.7328 -77.8081 292° West 166 191 5,900 -100 Descending Washington Center
Sat 03:08:03 AM 35.7400 -77.8669 279° West 171 197 6,000 50 Climbing Washington Center
Sat 03:09:03 AM 35.7556 -77.9264 288° West 171 197 6,000 56 Level Washington Center
Sat 03:09:51 AM 35.7653 -77.9753 284° West 184 212 6,100 55 Climbing Washington Center
Sat 03:10:52 AM 35.7806 -78.0397 286° West 182 209 6,100 49 Level Washington Center
Sat 03:11:53 AM 35.7981 -78.0992 290° West 175 201 6,200 -50 Climbing Washington Center
Sat 03:12:53 AM 35.8136 -78.1533 290° West 169 194 6,000 -99 Descending Washington Center
Sat 03:13:54 AM 35.8292 -78.2103 289° West 181 208 6,000 -49 Level Washington Center
Sat 03:14:55 AM 35.8361 -78.2669 279° West 174 200 5,900 -496 Descending Washington Center
Sat 03:15:55 AM 35.8453 -78.3286 280° West 179 206 5,000 -942 Descending Washington Center
Sat 03:16:56 AM 35.8689 -78.3833 298° West 181 208 4,000 -893 Descending Washington Center
Sat 03:17:56 AM 35.9014 -78.4281 312° West 161 185 3,200 -496 Descending Washington Center
Sat 03:18:57 AM 35.9233 -78.4697 303° West 140 161 3,000 -148 Descending Washington Center
Sat 03:19:58 AM 35.9392 -78.5064 298° West 112 129 2,900 -50 Descending Washington Center
Sat 03:20:58 AM 35.9531 -78.5378 299° West 107 123 2,900 -248 Level Washington Center
Sat 03:21:59 AM 35.9497 -78.5836 265° West 149 171 2,400 -393 Descending Washington Center
Sat 03:23:00 AM 35.9528 -78.6300 275° West 133 153 2,100 -298 Descending Washington Center
Sat 03:24:00 AM 35.9475 -78.6708 261° West 119 137 1,800 -248 Descending Washington Center
Sat 03:25:01 AM 35.9278 -78.7111 239° Southwest 127 146 1,600 -298 Descending Washington Center
Sat 03:26:01 AM 35.9081 -78.7436 233° Southwest 123 142 1,200 -446 Descending Washington Center
Sat 03:27:02 AM 35.8844 -78.7711 223° Southwest 117 135 700 -492 Descending Washington Center
Sat 03:29:00 AM 35.8667 -78.7833 284° West  Level FlightAware Approximate

Login

Don't have an account? Register now (free) for customized features, flight alerts, and more!